Time;durP1;ratioP1;P1;durP2;ratioP2;P2;SDS_P1;SDS_P2;PMS_P1;PMS_P2;Temp;Humidity;BMP_temperature;BMP_pressure;BME280_temperature;BME280_humidity;BME280_pressure;Samples;Min_cycle;Max_cycle;Signal;HPM_P1;HPM_P2
2022/05/07 00:01:55;;;;;;;;;;;;;;;;;;5099263;28;19947;-25
2022/05/07 00:04:21;;;;;;;;;;;;;;;;;;5099147;28;19938;-25
2022/05/07 00:06:48;;;;;;;;;;;;;;;;;;5099378;28;19966;-25
2022/05/07 00:09:14;;;;;;;;;;;;;;;;;;5099078;28;19912;-26
2022/05/07 00:11:41;;;;;;;;;;;;;;;;;;5099126;28;19970;-25
2022/05/07 00:14:08;;;;;;;;;;;;;;;;;;5098888;28;19924;-26
2022/05/07 00:19:20;;;;;;;;;;;;;;;;;;5098932;28;19938;-25
2022/05/07 00:21:46;;;;;;;;;;;;;;;;;;5098379;28;19912;-25
2022/05/07 00:24:13;;;;;;;;;;;;;;;;;;5099361;28;20212;-25
2022/05/07 00:26:39;;;;;;;;;;;;;;;;;;5099123;28;19919;-26
2022/05/07 00:29:06;;;;;;;;;;;;;;;;;;5080828;28;19938;-25
2022/05/07 00:31:33;;;;;;;;;;;;;;;;;;5098618;28;19912;-25
2022/05/07 00:33:59;;;;;;;;;;;;;;;;;;5098279;28;20240;-25
2022/05/07 00:36:27;;;;;;;;;;;;;;;;;;5080779;28;19912;-25
2022/05/07 00:38:54;;;;;;;;;;;;;;;;;;5080406;28;19918;-25
2022/05/07 00:41:22;;;;;;;;;;;;;;;;;;5098597;28;19912;-25
2022/05/07 00:43:48;;;;;;;;;;;;;;;;;;5098589;28;20385;-25
2022/05/07 00:46:15;;;;;;;;;;;;;;;;;;5080468;28;19920;-25
2022/05/07 00:48:42;;;;;;;;;;;;;;;;;;5080387;28;20003;-25
2022/05/07 01:08:25;;;;;;;;;;;;;;;;;;5451275;22;19930;-25
2022/05/07 01:10:52;;;;;;;;;;;;;;;;;;5118520;28;19911;-25
2022/05/07 01:13:18;;;;;;;;;;;;;;;;;;5118669;28;19915;-25
2022/05/07 01:15:45;;;;;;;;;;;;;;;;;;5100354;28;19925;-25
2022/05/07 01:18:12;;;;;;;;;;;;;;;;;;5118170;28;19911;-25
2022/05/07 01:20:39;;;;;;;;;;;;;;;;;;5100710;28;19920;-25
2022/05/07 01:23:06;;;;;;;;;;;;;;;;;;5118665;28;19916;-25
2022/05/07 01:25:33;;;;;;;;;;;;;;;;;;5100051;28;20310;-25
2022/05/07 01:28:00;;;;;;;;;;;;;;;;;;5118521;28;20350;-25
2022/05/07 01:30:26;;;;;;;;;;;;;;;;;;5100068;28;19908;-25
2022/05/07 01:32:53;;;;;;;;;;;;;;;;;;5117741;28;19951;-25
2022/05/07 01:35:20;;;;;;;;;;;;;;;;;;5117979;28;19915;-25
2022/05/07 01:37:46;;;;;;;;;;;;;;;;;;5118330;28;19964;-25
2022/05/07 01:40:13;;;;;;;;;;;;;;;;;;5117638;28;19985;-25
2022/05/07 01:42:39;;;;;;;;;;;;;;;;;;5117948;28;20315;-25
2022/05/07 01:45:06;;;;;;;;;;;;;;;;;;5100049;28;19926;-25
2022/05/07 01:50:17;;;;;;;;;;;;;;;;;;5117640;28;19923;-25
2022/05/07 01:52:44;;;;;;;;;;;;;;;;;;5099808;28;20304;-25
2022/05/07 01:55:11;;;;;;;;;;;;;;;;;;5099900;28;19912;-25
2022/05/07 01:57:37;;;;;;;;;;;;;;;;;;5117657;28;19912;-25
2022/05/07 02:00:04;;;;;;;;;;;;;;;;;;5117567;28;19997;-25
2022/05/07 02:02:31;;;;;;;;;;;;;;;;;;5117671;28;20315;-25
2022/05/07 02:04:57;;;;;;;;;;;;;;;;;;5117703;28;19979;-25
2022/05/07 02:07:24;;;;;;;;;;;;;;;;;;5099299;28;20000;-26
2022/05/07 02:09:51;;;;;;;;;;;;;;;;;;5118159;28;19935;-26
2022/05/07 02:12:17;;;;;;;;;;;;;;;;;;5117957;28;19951;-25
2022/05/07 02:14:44;;;;;;;;;;;;;;;;;;5117735;28;19919;-25
2022/05/07 02:17:11;;;;;;;;;;;;;;;;;;5099438;28;20357;-25
2022/05/07 02:19:38;;;;;;;;;;;;;;;;;;5117257;28;19915;-25
2022/05/07 02:22:04;;;;;;;;;;;;;;;;;;5117457;28;19919;-25
2022/05/07 02:24:31;;;;;;;;;;;;;;;;;;5117287;28;19908;-26
2022/05/07 02:26:59;;;;;;;;;;;;;;;;;;5117608;28;19957;-25
2022/05/07 02:29:26;;;;;;;;;;;;;;;;;;5099832;28;19911;-25
2022/05/07 02:32:19;;;;;;;;;;;;;;;;;;5117643;28;19967;-25
2022/05/07 02:34:40;;;;;;;;;;;;;;;;;;5115895;28;19926;-25
2022/05/07 02:37:07;;;;;;;;;;;;;;;;;;5117440;28;19915;-25
2022/05/07 02:39:34;;;;;;;;;;;;;;;;;;5099037;28;19919;-25
2022/05/07 02:44:45;;;;;;;;;;;;;;;;;;5120568;28;19914;-25
2022/05/07 02:47:16;;;;;;;;;;;;;;;;;;5121592;28;19943;-25
2022/05/07 02:49:44;;;;;;;;;;;;;;;;;;5103128;28;20354;-25
2022/05/07 02:52:18;;;;;;;;;;;;;;;;;;5103792;28;19922;-25
2022/05/07 02:54:45;;;;;;;;;;;;;;;;;;5122704;28;20234;-25
2022/05/07 02:57:12;;;;;;;;;;;;;;;;;;5122121;28;20334;-25
2022/05/07 02:59:39;;;;;;;;;;;;;;;;;;5121395;28;19911;-25
2022/05/07 03:02:07;;;;;;;;;;;;;;;;;;5121376;28;19918;-27
2022/05/07 03:04:34;;;;;;;;;;;;;;;;;;5121282;28;19968;-25
2022/05/07 03:07:04;;;;;;;;;;;;;;;;;;5120936;28;19912;-25
2022/05/07 03:09:31;;;;;;;;;;;;;;;;;;5121540;28;20002;-25
2022/05/07 03:11:58;;;;;;;;;;;;;;;;;;5121341;28;19923;-25
2022/05/07 03:14:25;;;;;;;;;;;;;;;;;;5121306;28;19915;-25
2022/05/07 03:16:52;;;;;;;;;;;;;;;;;;5120350;28;19960;-25
2022/05/07 03:19:20;;;;;;;;;;;;;;;;;;5103204;28;20322;-25
2022/05/07 03:21:58;;;;;;;;;;;;;;;;;;5120787;28;19916;-26
2022/05/07 03:24:27;;;;;;;;;;;;;;;;;;5120773;28;20379;-25
2022/05/07 03:26:54;;;;;;;;;;;;;;;;;;5121211;28;20281;-25
2022/05/07 03:29:21;;;;;;;;;;;;;;;;;;5121262;28;19994;-25
2022/05/07 03:31:49;;;;;;;;;;;;;;;;;;5102188;28;19911;-25
2022/05/07 03:34:16;;;;;;;;;;;;;;;;;;5120072;28;19923;-25
2022/05/07 03:36:44;;;;;;;;;;;;;;;;;;5102244;28;20378;-25
2022/05/07 03:39:11;;;;;;;;;;;;;;;;;;5101849;28;19912;-25
2022/05/07 03:41:38;;;;;;;;;;;;;;;;;;5120304;28;19916;-25
2022/05/07 03:44:05;;;;;;;;;;;;;;;;;;5120034;28;20345;-25
2022/05/07 03:46:32;;;;;;;;;;;;;;;;;;5119932;28;19916;-25
2022/05/07 03:48:59;;;;;;;;;;;;;;;;;;5101893;28;19907;-25
2022/05/07 03:51:25;;;;;;;;;;;;;;;;;;5101782;28;19922;-25
2022/05/07 03:53:52;;;;;;;;;;;;;;;;;;5119883;28;19912;-25
2022/05/07 03:56:18;;;;;;;;;;;;;;;;;;5120360;28;19938;-25
2022/05/07 03:58:45;;;;;;;;;;;;;;;;;;5119579;28;19911;-25
2022/05/07 04:01:12;;;;;;;;;;;;;;;;;;5101844;28;19915;-25
2022/05/07 04:03:38;;;;;;;;;;;;;;;;;;5119822;28;20330;-25
2022/05/07 04:06:05;;;;;;;;;;;;;;;;;;5119991;28;20006;-25
2022/05/07 04:08:32;;;;;;;;;;;;;;;;;;5119265;28;19919;-25
2022/05/07 04:11:01;;;;;;;;;;;;;;;;;;5101764;28;19923;-25
2022/05/07 04:13:28;;;;;;;;;;;;;;;;;;5119004;28;19989;-25
2022/05/07 04:15:55;;;;;;;;;;;;;;;;;;5119232;28;19978;-25
2022/05/07 04:18:22;;;;;;;;;;;;;;;;;;5101137;28;19911;-26
2022/05/07 04:20:49;;;;;;;;;;;;;;;;;;5119418;28;19908;-25
2022/05/07 04:23:15;;;;;;;;;;;;;;;;;;5101439;28;19999;-25
2022/05/07 04:25:42;;;;;;;;;;;;;;;;;;5101343;28;19912;-24
2022/05/07 04:28:09;;;;;;;;;;;;;;;;;;5118974;28;19918;-24
2022/05/07 04:30:36;;;;;;;;;;;;;;;;;;5120081;28;19916;-25
2022/05/07 04:33:03;;;;;;;;;;;;;;;;;;5119094;28;20014;-25
2022/05/07 04:35:30;;;;;;;;;;;;;;;;;;5119141;28;19960;-23
2022/05/07 04:37:58;;;;;;;;;;;;;;;;;;5118677;28;19919;-25
2022/05/07 04:40:25;;;;;;;;;;;;;;;;;;5118976;28;19922;-25
2022/05/07 04:42:52;;;;;;;;;;;;;;;;;;5119035;28;20028;-25
2022/05/07 04:45:20;;;;;;;;;;;;;;;;;;5101108;28;19915;-26
2022/05/07 04:47:46;;;;;;;;;;;;;;;;;;5118899;28;19919;-26
2022/05/07 04:50:13;;;;;;;;;;;;;;;;;;5119456;28;19943;-26
2022/05/07 04:52:40;;;;;;;;;;;;;;;;;;5118948;28;20160;-25
2022/05/07 04:55:07;;;;;;;;;;;;;;;;;;5101780;28;20261;-26
2022/05/07 04:57:34;;;;;;;;;;;;;;;;;;5118702;28;19911;-26
2022/05/07 05:00:03;;;;;;;;;;;;;;;;;;5119379;28;19912;-26
2022/05/07 05:02:29;;;;;;;;;;;;;;;;;;5118119;28;20321;-26
2022/05/07 05:04:56;;;;;;;;;;;;;;;;;;5118565;28;19919;-26
2022/05/07 05:07:24;;;;;;;;;;;;;;;;;;5117596;28;20254;-26
2022/05/07 05:09:51;;;;;;;;;;;;;;;;;;5080289;28;19970;-26
2022/05/07 05:12:18;;;;;;;;;;;;;;;;;;5079802;28;19912;-23
2022/05/07 05:15:08;;;;;;;;;;;;;;;;;;5097286;28;19963;-23
2022/05/07 05:17:35;;;;;;;;;;;;;;;;;;5097891;28;19912;-23
2022/05/07 05:20:02;;;;;;;;;;;;;;;;;;5079901;28;19912;-27
2022/05/07 05:22:28;;;;;;;;;;;;;;;;;;5097539;28;19920;-23
2022/05/07 05:24:55;;;;;;;;;;;;;;;;;;5079661;28;19908;-24
2022/05/07 05:27:22;;;;;;;;;;;;;;;;;;5079525;28;19912;-24
2022/05/07 05:29:49;;;;;;;;;;;;;;;;;;5079593;28;19969;-24
2022/05/07 05:32:23;;;;;;;;;;;;;;;;;;5080270;28;20343;-24
2022/05/07 05:34:55;;;;;;;;;;;;;;;;;;5097820;28;19968;-24
2022/05/07 05:37:22;;;;;;;;;;;;;;;;;;5097667;28;19908;-24
2022/05/07 05:39:50;;;;;;;;;;;;;;;;;;5097291;28;20006;-24
2022/05/07 05:42:17;;;;;;;;;;;;;;;;;;5079337;28;20005;-24
2022/05/07 05:44:44;;;;;;;;;;;;;;;;;;5079975;28;19969;-24
2022/05/07 05:47:10;;;;;;;;;;;;;;;;;;5079787;28;19938;-24
2022/05/07 05:49:44;;;;;;;;;;;;;;;;;;5097389;28;19946;-24
2022/05/07 05:52:11;;;;;;;;;;;;;;;;;;5098452;28;19920;-24
2022/05/07 05:54:45;;;;;;;;;;;;;;;;;;5097204;28;19916;-24
2022/05/07 05:57:18;;;;;;;;;;;;;;;;;;5095988;28;19912;-25
2022/05/07 05:59:44;;;;;;;;;;;;;;;;;;5094395;28;19928;-25
2022/05/07 06:02:10;;;;;;;;;;;;;;;;;;5094576;28;19958;-25
2022/05/07 06:04:36;;;;;;;;;;;;;;;;;;5094413;28;19916;-25
2022/05/07 06:07:02;;;;;;;;;;;;;;;;;;5094110;28;20311;-25
2022/05/07 06:09:28;;;;;;;;;;;;;;;;;;5092510;28;19931;-25
2022/05/07 06:11:59;;;;;;;;;;;;;;;;;;5096468;28;20342;-25
2022/05/07 06:14:25;;;;;;;;;;;;;;;;;;5114494;28;19950;-25
2022/05/07 06:16:51;;;;;;;;;;;;;;;;;;5114469;28;19951;-25
2022/05/07 06:19:17;;;;;;;;;;;;;;;;;;5117182;28;19908;-25
2022/05/07 06:21:43;;;;;;;;;;;;;;;;;;5119005;28;19912;-25
2022/05/07 06:29:40;;;;;;;;;;;;;;;;;;5121633;28;20349;-24
2022/05/07 06:32:07;;;;;;;;;;;;;;;;;;5121440;28;19978;-24
2022/05/07 06:34:34;;;;;;;;;;;;;;;;;;5121798;28;19916;-23
2022/05/07 06:37:01;;;;;;;;;;;;;;;;;;5103440;28;19933;-24
2022/05/07 06:39:27;;;;;;;;;;;;;;;;;;5103882;28;19915;-25
2022/05/07 06:41:54;;;;;;;;;;;;;;;;;;5121846;28;19911;-24
2022/05/07 06:44:28;;;;;;;;;;;;;;;;;;5103583;28;19907;-24
2022/05/07 06:46:56;;;;;;;;;;;;;;;;;;5121675;28;19918;-24
2022/05/07 06:49:24;;;;;;;;;;;;;;;;;;5102988;28;19907;-24
2022/05/07 06:51:51;;;;;;;;;;;;;;;;;;5121707;28;19920;-24
2022/05/07 06:54:18;;;;;;;;;;;;;;;;;;5121021;28;20003;-24
2022/05/07 06:56:46;;;;;;;;;;;;;;;;;;5102800;28;19911;-24
2022/05/07 06:59:14;;;;;;;;;;;;;;;;;;5103278;28;20392;-24
2022/05/07 07:01:41;;;;;;;;;;;;;;;;;;5102893;28;19923;-24
2022/05/07 07:04:07;;;;;;;;;;;;;;;;;;5120395;28;19912;-24
2022/05/07 07:06:34;;;;;;;;;;;;;;;;;;5120648;28;20009;-24
2022/05/07 07:09:00;;;;;;;;;;;;;;;;;;5120272;28;20326;-24
2022/05/07 07:11:29;;;;;;;;;;;;;;;;;;5120910;28;19927;-24
2022/05/07 07:13:56;;;;;;;;;;;;;;;;;;5120432;28;19908;-24
2022/05/07 07:16:23;;;;;;;;;;;;;;;;;;5120856;28;19978;-24
2022/05/07 07:18:49;;;;;;;;;;;;;;;;;;5120523;28;19912;-24
2022/05/07 07:21:17;;;;;;;;;;;;;;;;;;5120778;28;19908;-24
2022/05/07 07:23:44;;;;;;;;;;;;;;;;;;5120715;28;19951;-24
2022/05/07 07:26:11;;;;;;;;;;;;;;;;;;5120889;28;19912;-24
2022/05/07 07:28:38;;;;;;;;;;;;;;;;;;5101823;28;19919;-24
2022/05/07 07:31:05;;;;;;;;;;;;;;;;;;5101834;28;19908;-24
2022/05/07 07:33:32;;;;;;;;;;;;;;;;;;5120397;28;19947;-24
2022/05/07 07:35:59;;;;;;;;;;;;;;;;;;5119842;28;19911;-24
2022/05/07 07:38:29;;;;;;;;;;;;;;;;;;5120105;28;19919;-24
2022/05/07 07:40:55;;;;;;;;;;;;;;;;;;5102225;28;19911;-24
2022/05/07 07:43:23;;;;;;;;;;;;;;;;;;5120100;28;19912;-25
2022/05/07 07:48:34;;;;;;;;;;;;;;;;;;5120367;28;19930;-24
2022/05/07 07:51:01;;;;;;;;;;;;;;;;;;5102053;28;19912;-24
2022/05/07 07:53:27;;;;;;;;;;;;;;;;;;5101873;28;19912;-24
2022/05/07 07:55:55;;;;;;;;;;;;;;;;;;5119471;28;20375;-24
2022/05/07 07:58:22;;;;;;;;;;;;;;;;;;5119669;28;20289;-24
2022/05/07 08:00:49;;;;;;;;;;;;;;;;;;5102664;28;20219;-25
2022/05/07 08:03:16;;;;;;;;;;;;;;;;;;5119799;28;19985;-24
2022/05/07 08:05:43;;;;;;;;;;;;;;;;;;5119987;28;19923;-25
2022/05/07 08:13:41;;;;;;;;;;;;;;;;;;5099080;28;19976;-24
2022/05/07 08:16:08;;;;;;;;;;;;;;;;;;5098680;28;19916;-24
2022/05/07 08:18:38;;;;;;;;;;;;;;;;;;5081012;28;19912;-24
2022/05/07 08:21:06;;;;;;;;;;;;;;;;;;5098669;28;19908;-24
2022/05/07 08:23:33;;;;;;;;;;;;;;;;;;5099578;28;19915;-24
2022/05/07 08:26:01;;;;;;;;;;;;;;;;;;5098632;28;20406;-24
2022/05/07 08:28:28;;;;;;;;;;;;;;;;;;5097632;28;19912;-24
2022/05/07 08:30:55;;;;;;;;;;;;;;;;;;5080113;28;19965;-24
2022/05/07 08:33:22;;;;;;;;;;;;;;;;;;5080143;28;20306;-24
2022/05/07 08:35:49;;;;;;;;;;;;;;;;;;5098100;28;19963;-24
2022/05/07 08:38:16;;;;;;;;;;;;;;;;;;5097963;28;19909;-24
2022/05/07 08:40:42;;;;;;;;;;;;;;;;;;5096899;28;19944;-24
2022/05/07 08:43:09;;;;;;;;;;;;;;;;;;5097013;28;20247;-24
2022/05/07 08:45:36;;;;;;;;;;;;;;;;;;5097734;28;19908;-24
2022/05/07 08:48:03;;;;;;;;;;;;;;;;;;5079565;28;20021;-24
2022/05/07 08:50:30;;;;;;;;;;;;;;;;;;5079588;28;19908;-24
2022/05/07 08:52:57;;;;;;;;;;;;;;;;;;5097736;28;19991;-25
2022/05/07 08:55:24;;;;;;;;;;;;;;;;;;5097323;28;20428;-24
2022/05/07 08:57:52;;;;;;;;;;;;;;;;;;5097362;28;19970;-24
2022/05/07 09:00:18;;;;;;;;;;;;;;;;;;5097321;28;19912;-24
2022/05/07 09:02:46;;;;;;;;;;;;;;;;;;5097236;28;19912;-24
2022/05/07 09:05:13;;;;;;;;;;;;;;;;;;5097915;28;19922;-24
2022/05/07 09:07:41;;;;;;;;;;;;;;;;;;5098248;28;19956;-24
2022/05/07 09:10:09;;;;;;;;;;;;;;;;;;5118523;28;19922;-24
2022/05/07 09:12:35;;;;;;;;;;;;;;;;;;5118555;28;19912;-24
2022/05/07 09:15:03;;;;;;;;;;;;;;;;;;5117931;28;19935;-25
2022/05/07 09:17:29;;;;;;;;;;;;;;;;;;5100152;28;19939;-24
2022/05/07 09:19:56;;;;;;;;;;;;;;;;;;5100429;28;20241;-24
2022/05/07 09:22:26;;;;;;;;;;;;;;;;;;5100303;28;19912;-24
2022/05/07 09:24:55;;;;;;;;;;;;;;;;;;5101247;28;19911;-24
2022/05/07 09:27:22;;;;;;;;;;;;;;;;;;5117577;28;19911;-24
2022/05/07 09:29:49;;;;;;;;;;;;;;;;;;5117925;28;19923;-24
2022/05/07 09:32:16;;;;;;;;;;;;;;;;;;5117665;28;19911;-24
2022/05/07 09:37:28;;;;;;;;;;;;;;;;;;5117973;28;19918;-24
2022/05/07 09:39:55;;;;;;;;;;;;;;;;;;5100011;28;19919;-24
2022/05/07 09:42:21;;;;;;;;;;;;;;;;;;5100067;28;19983;-24
2022/05/07 09:44:48;;;;;;;;;;;;;;;;;;5117758;28;19916;-24
2022/05/07 09:47:15;;;;;;;;;;;;;;;;;;5117683;28;19987;-24
2022/05/07 09:50:20;;;;;;;;;;;;;;;;;;5099979;28;19911;-24
2022/05/07 09:52:30;;;;;;;;;;;;;;;;;;5117145;28;19919;-24
2022/05/07 09:57:41;;;;;;;;;;;;;;;;;;5117568;28;19969;-24
2022/05/07 10:00:10;;;;;;;;;;;;;;;;;;5117382;28;20247;-24
2022/05/07 10:02:37;;;;;;;;;;;;;;;;;;5117455;28;19908;-24
2022/05/07 10:05:05;;;;;;;;;;;;;;;;;;5099936;28;20266;-24
2022/05/07 10:07:32;;;;;;;;;;;;;;;;;;5117511;28;19911;-24
2022/05/07 10:10:02;;;;;;;;;;;;;;;;;;5117552;28;19920;-24
2022/05/07 10:12:29;;;;;;;;;;;;;;;;;;5117511;28;20369;-25
2022/05/07 10:14:56;;;;;;;;;;;;;;;;;;5117709;28;19924;-24
2022/05/07 10:17:22;;;;;;;;;;;;;;;;;;5117515;28;19912;-24
2022/05/07 10:19:50;;;;;;;;;;;;;;;;;;5099889;28;19912;-25
2022/05/07 10:22:17;;;;;;;;;;;;;;;;;;5117403;28;20064;-24
2022/05/07 10:24:45;;;;;;;;;;;;;;;;;;5117465;28;19923;-24
2022/05/07 10:27:13;;;;;;;;;;;;;;;;;;5117442;28;19912;-24
2022/05/07 10:29:40;;;;;;;;;;;;;;;;;;5117436;28;19927;-25
2022/05/07 10:32:06;;;;;;;;;;;;;;;;;;5117176;28;19959;-25
2022/05/07 10:34:33;;;;;;;;;;;;;;;;;;5117365;28;19911;-24
2022/05/07 10:37:00;;;;;;;;;;;;;;;;;;5117258;28;19962;-24
2022/05/07 10:39:28;;;;;;;;;;;;;;;;;;5099142;28;19920;-24
2022/05/07 10:41:57;;;;;;;;;;;;;;;;;;5117134;28;19912;-25
2022/05/07 10:44:24;;;;;;;;;;;;;;;;;;5117706;28;19912;-24
2022/05/07 10:46:51;;;;;;;;;;;;;;;;;;5117267;28;19984;-24
2022/05/07 10:49:19;;;;;;;;;;;;;;;;;;5117265;28;19960;-25
2022/05/07 10:51:52;;;;;;;;;;;;;;;;;;5117267;28;19935;-24
2022/05/07 10:54:19;;;;;;;;;;;;;;;;;;5117112;28;19916;-24
2022/05/07 10:56:46;;;;;;;;;;;;;;;;;;5117303;28;20357;-25
2022/05/07 10:59:13;;;;;;;;;;;;;;;;;;5098859;28;19916;-25
2022/05/07 11:01:42;;;;;;;;;;;;;;;;;;5117441;28;19912;-24
2022/05/07 11:04:10;;;;;;;;;;;;;;;;;;5117650;28;19985;-24
2022/05/07 11:06:37;;;;;;;;;;;;;;;;;;5121244;28;19994;-24
2022/05/07 11:09:04;;;;;;;;;;;;;;;;;;5120664;28;19920;-24
2022/05/07 11:11:31;;;;;;;;;;;;;;;;;;5102861;28;20246;-25
2022/05/07 11:13:58;;;;;;;;;;;;;;;;;;5120552;28;19912;-24
2022/05/07 11:16:25;;;;;;;;;;;;;;;;;;5102691;28;19911;-24
2022/05/07 11:18:52;;;;;;;;;;;;;;;;;;5120361;28;20310;-24
2022/05/07 11:21:19;;;;;;;;;;;;;;;;;;5102588;28;19965;-24
2022/05/07 11:23:46;;;;;;;;;;;;;;;;;;5102703;28;19922;-24
2022/05/07 11:26:13;;;;;;;;;;;;;;;;;;5102441;28;19911;-25
2022/05/07 11:28:40;;;;;;;;;;;;;;;;;;5120947;28;19922;-25
2022/05/07 11:31:08;;;;;;;;;;;;;;;;;;5120433;28;19915;-24
2022/05/07 11:33:34;;;;;;;;;;;;;;;;;;5120585;28;19930;-25
2022/05/07 11:36:01;;;;;;;;;;;;;;;;;;5101706;28;20258;-24
2022/05/07 11:38:28;;;;;;;;;;;;;;;;;;5120480;28;20235;-24
2022/05/07 11:40:56;;;;;;;;;;;;;;;;;;5120579;28;19923;-24
2022/05/07 11:46:07;;;;;;;;;;;;;;;;;;5120034;28;20077;-24
2022/05/07 11:48:34;;;;;;;;;;;;;;;;;;5120047;28;20384;-24
2022/05/07 11:51:01;;;;;;;;;;;;;;;;;;5120534;28;19919;-24
2022/05/07 11:53:28;;;;;;;;;;;;;;;;;;5101673;28;20266;-24
2022/05/07 11:55:55;;;;;;;;;;;;;;;;;;5120378;28;19916;-24
2022/05/07 11:58:23;;;;;;;;;;;;;;;;;;5119871;28;19918;-24
2022/05/07 12:00:51;;;;;;;;;;;;;;;;;;5101554;28;19912;-24
2022/05/07 12:03:17;;;;;;;;;;;;;;;;;;5120136;28;20223;-24
2022/05/07 12:05:45;;;;;;;;;;;;;;;;;;5119860;28;19918;-24
2022/05/07 12:08:12;;;;;;;;;;;;;;;;;;5119262;28;19916;-24
2022/05/07 12:10:39;;;;;;;;;;;;;;;;;;5119966;28;19919;-24
2022/05/07 12:13:07;;;;;;;;;;;;;;;;;;5101595;28;20254;-24
2022/05/07 12:18:19;;;;;;;;;;;;;;;;;;5119724;28;19935;-24
2022/05/07 12:20:46;;;;;;;;;;;;;;;;;;5119860;28;20312;-24
2022/05/07 12:31:27;;;;;;;;;;;;;;;;;;5119577;28;19942;-24
2022/05/07 12:33:54;;;;;;;;;;;;;;;;;;5119327;28;19912;-24
2022/05/07 12:36:21;;;;;;;;;;;;;;;;;;5119367;28;19955;-24
2022/05/07 12:38:48;;;;;;;;;;;;;;;;;;5101396;28;20222;-24
2022/05/07 12:41:15;;;;;;;;;;;;;;;;;;5101152;28;19907;-25
2022/05/07 12:43:42;;;;;;;;;;;;;;;;;;5119141;28;19923;-24
2022/05/07 12:46:11;;;;;;;;;;;;;;;;;;5118903;28;19908;-24
2022/05/07 12:48:38;;;;;;;;;;;;;;;;;;5119022;28;19935;-24
2022/05/07 12:51:09;;;;;;;;;;;;;;;;;;5101684;28;20268;-24
2022/05/07 12:53:36;;;;;;;;;;;;;;;;;;5119626;28;19912;-24
2022/05/07 12:56:03;;;;;;;;;;;;;;;;;;5119525;28;19912;-24
2022/05/07 12:58:30;;;;;;;;;;;;;;;;;;5118747;28;19972;-24
2022/05/07 13:00:57;;;;;;;;;;;;;;;;;;5119014;28;20358;-24
2022/05/07 13:03:24;;;;;;;;;;;;;;;;;;5100823;28;19912;-24
2022/05/07 13:05:51;;;;;;;;;;;;;;;;;;5119108;28;19943;-24
2022/05/07 13:08:18;;;;;;;;;;;;;;;;;;5094704;28;19924;-24
2022/05/07 13:10:44;;;;;;;;;;;;;;;;;;5080480;28;19913;-24
2022/05/07 13:13:11;;;;;;;;;;;;;;;;;;5080354;28;20312;-25
2022/05/07 13:15:39;;;;;;;;;;;;;;;;;;5080287;28;20389;-24
2022/05/07 13:18:07;;;;;;;;;;;;;;;;;;5098295;28;20011;-24
2022/05/07 13:20:34;;;;;;;;;;;;;;;;;;5098228;28;19919;-24
2022/05/07 13:23:01;;;;;;;;;;;;;;;;;;5098555;28;19940;-24
2022/05/07 13:25:28;;;;;;;;;;;;;;;;;;5080457;28;19916;-24
2022/05/07 13:27:55;;;;;;;;;;;;;;;;;;5097407;28;19919;-24
2022/05/07 13:30:22;;;;;;;;;;;;;;;;;;5097932;28;20400;-24
2022/05/07 13:33:04;;;;;;;;;;;;;;;;;;5097920;28;19977;-24
2022/05/07 13:35:33;;;;;;;;;;;;;;;;;;5098311;28;19920;-24
2022/05/07 13:38:00;;;;;;;;;;;;;;;;;;5097545;28;19948;-24
2022/05/07 13:40:27;;;;;;;;;;;;;;;;;;5097548;28;19912;-24
2022/05/07 13:42:54;;;;;;;;;;;;;;;;;;5098214;28;19908;-24
2022/05/07 13:45:21;;;;;;;;;;;;;;;;;;5097912;28;19912;-24
2022/05/07 13:47:48;;;;;;;;;;;;;;;;;;5097667;28;19942;-24
2022/05/07 13:50:15;;;;;;;;;;;;;;;;;;5079755;28;19912;-24
2022/05/07 13:52:44;;;;;;;;;;;;;;;;;;5079447;28;19912;-24
2022/05/07 13:55:12;;;;;;;;;;;;;;;;;;5097601;28;19984;-24
2022/05/07 13:57:39;;;;;;;;;;;;;;;;;;5096922;28;19912;-24
2022/05/07 14:00:06;;;;;;;;;;;;;;;;;;5097428;28;19912;-24
2022/05/07 14:02:34;;;;;;;;;;;;;;;;;;5097301;28;19995;-24
2022/05/07 14:05:01;;;;;;;;;;;;;;;;;;5097631;28;19908;-24
2022/05/07 14:07:29;;;;;;;;;;;;;;;;;;5079237;28;19983;-24
2022/05/07 14:09:57;;;;;;;;;;;;;;;;;;5116442;28;19951;-24
2022/05/07 14:12:24;;;;;;;;;;;;;;;;;;5099822;28;19925;-24
2022/05/07 14:14:51;;;;;;;;;;;;;;;;;;5117613;28;19922;-24
2022/05/07 14:17:20;;;;;;;;;;;;;;;;;;5099327;28;19912;-24
2022/05/07 14:19:47;;;;;;;;;;;;;;;;;;5117478;28;20303;-24
2022/05/07 14:22:13;;;;;;;;;;;;;;;;;;5118542;28;19920;-25
2022/05/07 14:24:40;;;;;;;;;;;;;;;;;;5099461;28;19915;-24
2022/05/07 14:27:08;;;;;;;;;;;;;;;;;;5099397;28;19915;-24
2022/05/07 14:29:36;;;;;;;;;;;;;;;;;;5117561;28;20010;-24
2022/05/07 14:32:04;;;;;;;;;;;;;;;;;;5117090;28;20330;-25
2022/05/07 14:34:30;;;;;;;;;;;;;;;;;;5117320;28;19916;-24
2022/05/07 14:36:58;;;;;;;;;;;;;;;;;;5116726;28;19926;-24
2022/05/07 14:39:24;;;;;;;;;;;;;;;;;;5100066;28;20004;-24
2022/05/07 14:41:51;;;;;;;;;;;;;;;;;;5121622;28;19919;-24
2022/05/07 14:44:18;;;;;;;;;;;;;;;;;;5121162;28;19996;-24
2022/05/07 14:46:46;;;;;;;;;;;;;;;;;;5121441;28;20307;-24
2022/05/07 14:49:13;;;;;;;;;;;;;;;;;;5121613;28;19911;-24
2022/05/07 14:51:40;;;;;;;;;;;;;;;;;;5121079;28;19999;-24
2022/05/07 14:54:08;;;;;;;;;;;;;;;;;;5121054;28;19911;-24
2022/05/07 14:56:38;;;;;;;;;;;;;;;;;;5103207;28;20350;-24
2022/05/07 14:59:05;;;;;;;;;;;;;;;;;;5121074;28;20289;-24
2022/05/07 15:01:31;;;;;;;;;;;;;;;;;;5102645;28;19947;-24
2022/05/07 15:04:00;;;;;;;;;;;;;;;;;;5102892;28;20053;-24
2022/05/07 15:06:26;;;;;;;;;;;;;;;;;;5121164;28;20223;-24
2022/05/07 15:11:38;;;;;;;;;;;;;;;;;;5121128;28;20292;-25
2022/05/07 15:14:05;;;;;;;;;;;;;;;;;;5102282;28;19923;-24
2022/05/07 15:16:32;;;;;;;;;;;;;;;;;;5121196;28;19918;-24
2022/05/07 15:18:59;;;;;;;;;;;;;;;;;;5102614;28;19912;-24
2022/05/07 15:21:25;;;;;;;;;;;;;;;;;;5102644;28;19947;-24
2022/05/07 15:23:55;;;;;;;;;;;;;;;;;;5120867;28;19915;-24
2022/05/07 15:26:22;;;;;;;;;;;;;;;;;;5103029;28;19936;-26
2022/05/07 15:28:49;;;;;;;;;;;;;;;;;;5102453;28;19912;-25
2022/05/07 15:31:16;;;;;;;;;;;;;;;;;;5120325;28;19912;-29
2022/05/07 15:39:12;;;;;;;;;;;;;;;;;;5119965;28;20254;-29
2022/05/07 15:41:39;;;;;;;;;;;;;;;;;;5120441;28;19908;-25
2022/05/07 15:44:06;;;;;;;;;;;;;;;;;;5120413;28;19959;-27
2022/05/07 15:46:35;;;;;;;;;;;;;;;;;;5119949;28;19911;-26
2022/05/07 15:49:02;;;;;;;;;;;;;;;;;;5119781;28;19933;-28
2022/05/07 15:51:29;;;;;;;;;;;;;;;;;;5101749;28;19908;-27
2022/05/07 15:53:57;;;;;;;;;;;;;;;;;;5119577;28;19923;-30
2022/05/07 15:56:25;;;;;;;;;;;;;;;;;;5119594;28;20304;-29
2022/05/07 15:58:51;;;;;;;;;;;;;;;;;;5119968;28;20315;-24
2022/05/07 16:01:19;;;;;;;;;;;;;;;;;;5120048;28;19973;-29
2022/05/07 16:03:46;;;;;;;;;;;;;;;;;;5101727;28;19923;-27
2022/05/07 16:06:12;;;;;;;;;;;;;;;;;;5120725;28;19911;-31
2022/05/07 16:08:39;;;;;;;;;;;;;;;;;;5119210;28;20377;-26
2022/05/07 16:11:07;;;;;;;;;;;;;;;;;;5101747;28;19911;-26
2022/05/07 16:13:33;;;;;;;;;;;;;;;;;;5119536;28;19953;-30
2022/05/07 16:16:01;;;;;;;;;;;;;;;;;;5119893;28;19916;-32
2022/05/07 16:18:29;;;;;;;;;;;;;;;;;;5119318;28;19938;-32
2022/05/07 16:20:56;;;;;;;;;;;;;;;;;;5120031;28;19982;-30
2022/05/07 16:26:08;;;;;;;;;;;;;;;;;;5119897;28;19973;-33
2022/05/07 16:28:35;;;;;;;;;;;;;;;;;;5119461;28;19912;-25
2022/05/07 16:31:02;;;;;;;;;;;;;;;;;;5119437;28;20246;-24
2022/05/07 16:33:28;;;;;;;;;;;;;;;;;;5118986;28;19936;-27
2022/05/07 16:35:57;;;;;;;;;;;;;;;;;;5119299;28;19912;-27
2022/05/07 16:38:23;;;;;;;;;;;;;;;;;;5100740;28;20235;-25
2022/05/07 16:40:50;;;;;;;;;;;;;;;;;;5119307;28;20018;-24
2022/05/07 16:43:17;;;;;;;;;;;;;;;;;;5119094;28;19912;-30
2022/05/07 16:45:44;;;;;;;;;;;;;;;;;;5100825;28;19908;-25
2022/05/07 16:48:10;;;;;;;;;;;;;;;;;;5119068;28;19911;-30
2022/05/07 16:50:37;;;;;;;;;;;;;;;;;;5118728;28;19911;-31
2022/05/07 16:53:04;;;;;;;;;;;;;;;;;;5118665;28;19919;-25
2022/05/07 16:55:31;;;;;;;;;;;;;;;;;;5119078;28;19912;-27
2022/05/07 16:57:58;;;;;;;;;;;;;;;;;;5118546;28;20010;-26
2022/05/07 17:00:25;;;;;;;;;;;;;;;;;;5118631;28;19908;-24
2022/05/07 17:02:52;;;;;;;;;;;;;;;;;;5099797;28;20346;-28
2022/05/07 17:05:18;;;;;;;;;;;;;;;;;;5100487;28;19908;-28
2022/05/07 17:07:46;;;;;;;;;;;;;;;;;;5100322;28;19912;-27
2022/05/07 17:10:14;;;;;;;;;;;;;;;;;;5118880;28;20254;-24
2022/05/07 17:12:41;;;;;;;;;;;;;;;;;;5118814;28;20258;-26
2022/05/07 17:15:08;;;;;;;;;;;;;;;;;;5118383;28;20365;-24
2022/05/07 17:17:36;;;;;;;;;;;;;;;;;;5117911;28;19969;-31
2022/05/07 17:20:03;;;;;;;;;;;;;;;;;;5118422;28;19930;-25
2022/05/07 17:22:29;;;;;;;;;;;;;;;;;;5118627;28;19961;-26
2022/05/07 17:24:57;;;;;;;;;;;;;;;;;;5118300;28;20338;-27
2022/05/07 17:27:24;;;;;;;;;;;;;;;;;;5099855;28;20258;-30
2022/05/07 17:29:51;;;;;;;;;;;;;;;;;;5118428;28;19908;-28
2022/05/07 17:32:18;;;;;;;;;;;;;;;;;;5118113;28;19916;-31
2022/05/07 17:34:45;;;;;;;;;;;;;;;;;;5117732;28;20014;-25
2022/05/07 17:37:11;;;;;;;;;;;;;;;;;;5100550;28;20234;-26
2022/05/07 17:39:39;;;;;;;;;;;;;;;;;;5117786;28;19912;-27
2022/05/07 17:42:05;;;;;;;;;;;;;;;;;;5118340;28;19908;-30
2022/05/07 17:44:33;;;;;;;;;;;;;;;;;;5117682;28;19918;-30
2022/05/07 17:47:00;;;;;;;;;;;;;;;;;;5099700;28;20235;-26
2022/05/07 17:49:27;;;;;;;;;;;;;;;;;;5099773;28;19969;-32
2022/05/07 17:51:56;;;;;;;;;;;;;;;;;;5118144;28;20272;-28
2022/05/07 17:54:23;;;;;;;;;;;;;;;;;;5118025;28;19947;-28
2022/05/07 17:56:50;;;;;;;;;;;;;;;;;;5099635;28;19919;-30